createdAt,value
2023-03-04T00:00:53.970Z,6.22
2023-03-04T00:03:21.391Z,6.07
2023-03-04T00:05:48.818Z,6.28
2023-03-04T00:08:16.098Z,6.90
2023-03-04T00:10:43.683Z,5.85
2023-03-04T00:13:10.956Z,6.15
2023-03-04T00:15:38.264Z,6.70
2023-03-04T00:18:05.623Z,5.97
2023-03-04T00:20:32.947Z,7.15
2023-03-04T00:23:00.985Z,9.40
2023-03-04T00:25:28.387Z,10.73
2023-03-04T00:27:55.713Z,9.13
2023-03-04T00:30:23.055Z,8.95
2023-03-04T00:32:50.386Z,6.88
2023-03-04T00:35:17.835Z,7.00
2023-03-04T00:37:45.133Z,6.22
2023-03-04T00:40:12.881Z,6.00
2023-03-04T00:42:42.922Z,6.82
2023-03-04T00:45:10.670Z,7.75
2023-03-04T00:47:38.014Z,7.63
2023-03-04T00:50:05.867Z,8.75
2023-03-04T00:52:33.381Z,8.35
2023-03-04T00:55:00.700Z,10.98
2023-03-04T00:57:28.898Z,10.18
2023-03-04T00:59:56.250Z,10.75
2023-03-04T01:02:24.960Z,11.23
2023-03-04T01:04:53.694Z,11.35
2023-03-04T01:07:22.360Z,11.90
2023-03-04T01:09:50.677Z,11.20
2023-03-04T01:12:18.950Z,11.10
2023-03-04T01:14:46.281Z,11.25
2023-03-04T01:17:13.900Z,13.60
2023-03-04T01:19:42.437Z,11.95
2023-03-04T01:22:10.914Z,11.43
2023-03-04T01:24:38.330Z,13.05
2023-03-04T01:27:06.991Z,13.48
2023-03-04T01:29:34.384Z,13.13
2023-03-04T01:32:03.365Z,11.48
2023-03-04T01:34:30.884Z,13.48
2023-03-04T01:36:59.308Z,10.75
2023-03-04T01:39:26.619Z,12.98
2023-03-04T01:41:54.185Z,13.60
2023-03-04T01:44:21.948Z,10.57
2023-03-04T01:46:53.701Z,10.98
2023-03-04T01:49:22.608Z,12.25
2023-03-04T01:51:53.733Z,12.95
2023-03-04T01:54:22.537Z,12.75
2023-03-04T01:56:52.738Z,12.57
2023-03-04T01:59:26.125Z,13.07
2023-03-04T02:01:55.924Z,12.52
2023-03-04T02:04:30.631Z,11.43
2023-03-04T02:06:59.161Z,11.07
2023-03-04T02:09:29.978Z,11.73
2023-03-04T02:11:57.778Z,11.60
2023-03-04T02:14:27.903Z,12.07
2023-03-04T02:16:55.406Z,11.75
2023-03-04T02:19:46.129Z,11.60
2023-03-04T02:22:13.483Z,13.32
2023-03-04T02:24:47.818Z,10.25
2023-03-04T02:27:15.422Z,10.75
2023-03-04T02:29:42.824Z,10.80
2023-03-04T02:32:13.130Z,10.43
2023-03-04T02:34:51.107Z,9.02
2023-03-04T02:37:20.079Z,10.13
2023-03-04T02:39:49.775Z,9.95
2023-03-04T02:42:18.435Z,10.98
2023-03-04T02:44:49.308Z,11.80
2023-03-04T02:47:22.252Z,12.13
2023-03-04T02:49:50.164Z,10.15
2023-03-04T02:52:20.445Z,12.23
2023-03-04T02:54:50.797Z,10.60
2023-03-04T02:57:18.638Z,10.45
2023-03-04T02:59:51.566Z,10.98
2023-03-04T03:02:22.454Z,12.75
2023-03-04T03:04:49.920Z,12.88
2023-03-04T03:07:19.892Z,11.18
2023-03-04T03:09:47.305Z,12.88
2023-03-04T03:12:14.596Z,13.52
2023-03-04T03:14:42.077Z,12.82
2023-03-04T03:17:12.021Z,10.45
2023-03-04T03:19:39.304Z,13.65
2023-03-04T03:22:10.941Z,12.23
2023-03-04T03:24:38.288Z,13.00
2023-03-04T03:27:06.043Z,12.38
2023-03-04T03:29:33.900Z,13.13
2023-03-04T03:32:01.161Z,13.07
2023-03-04T03:34:28.835Z,13.95
2023-03-04T03:36:56.170Z,12.32
2023-03-04T03:39:23.581Z,13.38
2023-03-04T03:41:50.873Z,10.98
2023-03-04T03:44:18.160Z,13.32
2023-03-04T03:46:46.789Z,13.55
2023-03-04T03:49:14.109Z,11.10
2023-03-04T03:51:41.361Z,13.52
2023-03-04T03:54:09.136Z,13.88
2023-03-04T03:56:36.383Z,13.52
2023-03-04T03:59:03.837Z,12.45
2023-03-04T04:01:31.129Z,13.43
2023-03-04T04:03:58.429Z,14.45
2023-03-04T04:06:26.415Z,14.10
2023-03-04T04:08:53.736Z,10.95
2023-03-04T04:11:21.376Z,11.98
2023-03-04T04:13:48.788Z,11.00
2023-03-04T04:16:16.224Z,10.05
2023-03-04T04:18:43.609Z,12.57
2023-03-04T04:21:11.025Z,13.38
2023-03-04T04:23:38.382Z,12.80
2023-03-04T04:26:05.684Z,13.13
2023-03-04T04:28:33.701Z,13.68
2023-03-04T04:31:01.053Z,10.77
2023-03-04T04:33:28.436Z,12.63
2023-03-04T04:35:55.802Z,12.43
2023-03-04T04:38:24.756Z,13.50
2023-03-04T04:40:52.008Z,11.05
2023-03-04T04:43:19.318Z,10.60
2023-03-04T04:45:46.674Z,10.82
2023-03-04T04:48:14.062Z,10.68
2023-03-04T04:50:41.346Z,11.07
2023-03-04T04:53:10.372Z,11.20
2023-03-04T04:55:37.737Z,9.90
2023-03-04T04:58:07.332Z,10.93
2023-03-04T05:00:34.648Z,10.55
2023-03-04T05:03:02.073Z,10.93
2023-03-04T05:05:29.408Z,10.25
2023-03-04T05:07:59.105Z,11.48
2023-03-04T05:10:26.418Z,10.95
2023-03-04T05:12:53.805Z,11.13
2023-03-04T05:15:21.180Z,12.45
2023-03-04T05:17:48.603Z,12.15
2023-03-04T05:20:16.011Z,11.90
2023-03-04T05:22:43.357Z,11.52
2023-03-04T05:25:12.086Z,11.52
2023-03-04T05:27:39.524Z,10.95
2023-03-04T05:30:07.389Z,11.75
2023-03-04T05:32:34.793Z,11.75
2023-03-04T05:35:02.161Z,13.20
2023-03-04T05:37:29.496Z,12.27
2023-03-04T05:39:56.793Z,13.90
2023-03-04T05:42:24.131Z,14.23
2023-03-04T05:44:54.033Z,12.63
2023-03-04T05:47:21.543Z,12.95
2023-03-04T05:49:48.851Z,10.80
2023-03-04T05:52:16.231Z,12.35
2023-03-04T05:54:43.466Z,11.93
2023-03-04T05:57:10.762Z,14.32
2023-03-04T05:59:38.120Z,13.85
2023-03-04T06:02:06.245Z,11.18
2023-03-04T06:04:33.722Z,13.95
2023-03-04T06:07:01.031Z,14.25
2023-03-04T06:09:28.300Z,12.98
2023-03-04T06:11:55.603Z,13.27
2023-03-04T06:14:23.076Z,15.50
2023-03-04T06:16:50.481Z,14.05
2023-03-04T06:19:17.804Z,12.30
2023-03-04T06:21:45.406Z,12.40
2023-03-04T06:24:12.857Z,11.82
2023-03-04T06:26:40.222Z,11.95
2023-03-04T06:29:07.642Z,12.32
2023-03-04T06:31:35.076Z,12.85
2023-03-04T06:34:02.517Z,12.25
2023-03-04T06:36:29.923Z,12.80
2023-03-04T06:38:57.228Z,12.48
2023-03-04T06:41:24.614Z,12.65
2023-03-04T06:43:54.556Z,13.52
2023-03-04T06:46:22.014Z,12.35
2023-03-04T06:48:49.358Z,12.07
2023-03-04T06:51:17.073Z,12.02
2023-03-04T06:53:44.328Z,12.48
2023-03-04T06:56:16.083Z,12.68
2023-03-04T06:58:47.203Z,14.02
2023-03-04T07:01:14.524Z,13.77
2023-03-04T07:03:43.058Z,13.60
2023-03-04T07:06:12.549Z,12.73
2023-03-04T07:08:40.645Z,13.50
2023-03-04T07:11:08.210Z,13.68
2023-03-04T07:13:38.241Z,13.23
2023-03-04T07:16:07.906Z,12.05
2023-03-04T07:18:36.438Z,11.75
2023-03-04T07:21:04.811Z,12.50
2023-03-04T07:23:32.472Z,13.65
2023-03-04T07:25:59.869Z,13.35
2023-03-04T07:28:27.683Z,13.40
2023-03-04T07:30:55.058Z,13.60
2023-03-04T07:33:22.341Z,13.57
2023-03-04T07:35:49.747Z,13.63
2023-03-04T07:38:17.093Z,14.32
2023-03-04T07:40:44.437Z,15.68
2023-03-04T07:43:12.724Z,14.15
2023-03-04T07:45:42.771Z,15.52
2023-03-04T07:48:10.169Z,13.73
2023-03-04T07:50:37.547Z,13.30
2023-03-04T07:53:04.915Z,13.90
2023-03-04T07:55:32.371Z,13.10
2023-03-04T07:58:00.190Z,12.25
2023-03-04T08:00:27.566Z,13.13
2023-03-04T08:02:54.898Z,13.93
2023-03-04T08:05:22.306Z,13.75
2023-03-04T08:07:51.679Z,14.02
2023-03-04T08:10:19.050Z,15.07
2023-03-04T08:12:46.451Z,15.32
2023-03-04T08:15:13.788Z,14.70
2023-03-04T08:17:41.113Z,14.82
2023-03-04T08:20:09.076Z,14.10
2023-03-04T08:22:36.426Z,15.80
2023-03-04T08:25:03.988Z,15.52
2023-03-04T08:27:31.320Z,15.80
2023-03-04T08:29:58.656Z,14.45
2023-03-04T08:32:26.136Z,14.68
2023-03-04T08:34:56.245Z,14.25
2023-03-04T08:37:23.961Z,13.05
2023-03-04T08:39:51.213Z,13.88
2023-03-04T08:42:18.551Z,13.93
2023-03-04T08:44:45.840Z,15.18
2023-03-04T08:47:13.262Z,14.65
2023-03-04T08:49:40.563Z,14.50
2023-03-04T08:52:08.113Z,14.05
2023-03-04T08:54:35.429Z,13.90
2023-03-04T08:57:03.724Z,13.70
2023-03-04T08:59:31.054Z,15.60
2023-03-04T09:01:58.419Z,14.18
2023-03-04T09:04:25.729Z,15.88
2023-03-04T09:06:54.055Z,17.63
2023-03-04T09:09:21.415Z,16.40
2023-03-04T09:11:49.032Z,12.93
2023-03-04T09:14:16.456Z,12.82
2023-03-04T09:16:43.878Z,13.65
2023-03-04T09:19:11.102Z,13.32
2023-03-04T09:21:38.473Z,12.77
2023-03-04T09:24:24.386Z,13.10
2023-03-04T09:26:55.177Z,13.35
2023-03-04T09:29:22.787Z,13.60
2023-03-04T09:31:50.738Z,13.75
2023-03-04T09:34:20.732Z,13.18
2023-03-04T09:36:48.075Z,12.75
2023-03-04T09:39:15.496Z,13.52
2023-03-04T09:41:46.071Z,12.85
2023-03-04T09:44:16.200Z,12.68
2023-03-04T09:46:45.123Z,13.13
2023-03-04T09:49:16.726Z,12.73
2023-03-04T09:51:46.701Z,12.73
2023-03-04T09:54:51.983Z,13.35
2023-03-04T09:57:45.601Z,13.75
2023-03-04T10:00:19.864Z,13.00
2023-03-04T10:03:10.320Z,14.07
2023-03-04T10:06:09.653Z,12.95
2023-03-04T10:09:02.528Z,12.65
2023-03-04T10:11:39.872Z,14.48
2023-03-04T10:14:19.376Z,13.35
2023-03-04T10:16:52.586Z,12.52
2023-03-04T10:19:47.305Z,12.57
2023-03-04T10:22:28.914Z,14.70
2023-03-04T10:24:58.495Z,12.00
2023-03-04T10:27:26.580Z,13.10
2023-03-04T10:29:53.943Z,13.75
2023-03-04T10:32:21.473Z,13.82
2023-03-04T10:34:48.869Z,13.65
2023-03-04T10:37:16.205Z,13.43
2023-03-04T10:39:47.553Z,13.55
2023-03-04T10:42:14.908Z,13.73
2023-03-04T10:44:55.953Z,13.20
2023-03-04T10:47:25.533Z,12.85
2023-03-04T10:49:58.744Z,14.05
2023-03-04T10:52:30.321Z,15.27
2023-03-04T10:55:02.069Z,14.68
2023-03-04T10:57:40.032Z,16.75
2023-03-04T11:00:34.484Z,14.80
2023-03-04T11:03:27.959Z,24.23
2023-03-04T11:06:05.481Z,16.45
2023-03-04T11:08:32.834Z,15.88
2023-03-04T11:11:00.208Z,16.20
2023-03-04T11:13:27.650Z,16.67
2023-03-04T11:16:02.366Z,16.90
2023-03-04T11:18:43.908Z,16.75
2023-03-04T11:21:19.601Z,15.32
2023-03-04T11:23:59.134Z,22.75
2023-03-04T11:26:29.727Z,19.30
2023-03-04T11:29:37.184Z,21.50
2023-03-04T11:32:08.498Z,20.95
2023-03-04T11:34:56.891Z,15.65
2023-03-04T11:37:30.512Z,24.55
2023-03-04T11:40:11.011Z,17.88
2023-03-04T11:42:51.319Z,16.52
2023-03-04T11:45:30.215Z,17.73
2023-03-04T11:48:31.737Z,19.98
2023-03-04T11:51:20.463Z,18.98
2023-03-04T11:53:54.564Z,14.60
2023-03-04T11:56:31.855Z,15.10
2023-03-04T11:59:23.916Z,14.02
2023-03-04T12:02:15.024Z,15.40
2023-03-04T12:04:48.359Z,16.52
2023-03-04T12:07:36.347Z,13.63
2023-03-04T12:10:19.488Z,17.80
2023-03-04T12:12:52.902Z,14.07
2023-03-04T12:15:24.931Z,14.23
2023-03-04T12:20:46.847Z,14.15
2023-03-04T12:23:35.089Z,13.50
2023-03-04T12:26:36.594Z,16.45
2023-03-04T12:29:06.901Z,12.85
2023-03-04T12:31:41.135Z,13.60
2023-03-04T12:34:32.818Z,14.77
2023-03-04T12:37:21.277Z,14.50
2023-03-04T12:40:16.074Z,14.82
2023-03-04T12:43:24.350Z,14.73
2023-03-04T12:46:13.180Z,13.50
2023-03-04T12:48:59.654Z,14.45
2023-03-04T12:51:47.418Z,13.73
2023-03-04T12:54:26.232Z,13.43
2023-03-04T12:57:02.383Z,13.95
2023-03-04T12:59:36.842Z,14.95
2023-03-04T13:02:35.464Z,15.18
2023-03-04T13:05:24.584Z,16.13
2023-03-04T13:08:02.426Z,14.02
2023-03-04T13:10:30.047Z,14.60
2023-03-04T13:12:59.982Z,15.00
2023-03-04T13:15:29.697Z,15.85
2023-03-04T13:17:58.905Z,14.98
2023-03-04T13:20:38.374Z,16.27
2023-03-04T13:23:14.753Z,15.57
2023-03-04T13:25:50.825Z,16.00
2023-03-04T13:28:26.948Z,14.25
2023-03-04T13:30:55.773Z,14.45
2023-03-04T13:33:23.263Z,14.52
2023-03-04T13:35:58.147Z,16.55
2023-03-04T13:38:28.515Z,17.67
2023-03-04T13:41:13.958Z,16.98
2023-03-04T13:43:49.442Z,16.02
2023-03-04T13:46:19.865Z,16.80
2023-03-04T13:48:50.295Z,14.93
2023-03-04T13:51:43.932Z,14.52
2023-03-04T13:54:16.664Z,15.07
2023-03-04T13:56:50.230Z,15.60
2023-03-04T13:59:32.193Z,14.40
2023-03-04T14:02:03.970Z,14.70
2023-03-04T14:04:35.151Z,14.75
2023-03-04T14:07:18.490Z,14.70
2023-03-04T14:10:00.840Z,14.93
2023-03-04T14:12:30.924Z,15.48
2023-03-04T14:15:02.795Z,14.63
2023-03-04T14:17:38.790Z,17.30
2023-03-04T14:20:24.602Z,17.48
2023-03-04T14:22:51.960Z,15.07
2023-03-04T14:25:19.262Z,14.80
2023-03-04T14:27:47.494Z,14.18
2023-03-04T14:30:39.102Z,14.68
2023-03-04T14:33:15.930Z,15.45
2023-03-04T14:35:48.975Z,18.08
2023-03-04T14:38:24.279Z,16.35
2023-03-04T14:40:55.990Z,16.33
2023-03-04T14:43:24.670Z,17.25
2023-03-04T14:45:55.289Z,16.50
2023-03-04T14:48:26.767Z,16.88
2023-03-04T14:50:55.812Z,17.00
2023-03-04T14:53:26.624Z,15.45
2023-03-04T14:55:57.869Z,15.25
2023-03-04T14:58:29.617Z,15.50
2023-03-04T15:01:07.200Z,18.50
2023-03-04T15:03:35.949Z,15.85
2023-03-04T15:06:18.109Z,18.73
2023-03-04T15:08:46.761Z,16.42
2023-03-04T15:11:27.128Z,14.98
2023-03-04T15:13:57.013Z,17.92
2023-03-04T15:16:28.055Z,15.20
2023-03-04T15:19:08.622Z,15.55
2023-03-04T15:21:43.105Z,16.60
2023-03-04T15:24:11.730Z,17.38
2023-03-04T15:26:42.589Z,16.58
2023-03-04T15:29:17.349Z,15.38
2023-03-04T15:31:48.322Z,18.13
2023-03-04T15:34:17.665Z,16.42
2023-03-04T15:36:47.383Z,17.08
2023-03-04T15:39:16.577Z,14.95
2023-03-04T15:41:46.585Z,15.02
2023-03-04T15:44:14.121Z,14.48
2023-03-04T15:46:41.566Z,14.38
2023-03-04T15:49:08.908Z,14.60
2023-03-04T15:51:36.416Z,16.27
2023-03-04T15:54:04.652Z,17.25
2023-03-04T15:56:33.902Z,14.98
2023-03-04T15:59:11.440Z,14.32
2023-03-04T16:01:38.841Z,17.40
2023-03-04T16:04:06.534Z,15.10
2023-03-04T16:06:33.942Z,14.50
2023-03-04T16:09:01.308Z,17.40
2023-03-04T16:11:32.761Z,15.10
2023-03-04T16:14:00.035Z,14.68
2023-03-04T16:16:27.396Z,16.13
2023-03-04T16:18:54.687Z,17.15
2023-03-04T16:21:24.924Z,15.02
2023-03-04T16:23:54.480Z,15.73
2023-03-04T16:26:23.626Z,14.02
2023-03-04T16:28:52.926Z,17.35
2023-03-04T16:31:22.608Z,15.70
2023-03-04T16:33:50.187Z,15.25
2023-03-04T16:36:20.256Z,15.20
2023-03-04T16:38:47.948Z,15.48
2023-03-04T16:41:16.946Z,15.25
2023-03-04T16:43:44.486Z,16.30
2023-03-04T16:46:14.560Z,14.48
2023-03-04T16:48:41.921Z,14.88
2023-03-04T16:51:18.443Z,16.90
2023-03-04T16:53:54.756Z,16.02
2023-03-04T16:56:24.988Z,14.57
2023-03-04T16:58:54.220Z,18.17
2023-03-04T17:01:21.564Z,15.15
2023-03-04T17:03:49.077Z,15.45
2023-03-04T17:06:17.261Z,16.70
2023-03-04T17:08:47.330Z,16.67
2023-03-04T17:11:17.875Z,16.92
2023-03-04T17:13:46.815Z,18.27
2023-03-04T17:16:15.260Z,19.23
2023-03-04T17:18:44.221Z,18.38
2023-03-04T17:21:17.352Z,20.98
2023-03-04T17:23:44.684Z,16.85
2023-03-04T17:26:15.662Z,20.05
2023-03-04T17:28:43.244Z,17.17
2023-03-04T17:31:16.071Z,19.23
2023-03-04T17:33:43.937Z,19.63
2023-03-04T17:36:13.286Z,19.65
2023-03-04T17:38:40.939Z,18.98
2023-03-04T17:41:13.375Z,21.35
2023-03-04T17:43:47.104Z,20.67
2023-03-04T17:46:16.361Z,21.85
2023-03-04T17:48:43.794Z,22.05
2023-03-04T17:51:14.839Z,22.98
2023-03-04T17:53:42.195Z,28.40
2023-03-04T17:56:11.625Z,28.45
2023-03-04T17:58:41.755Z,29.17
2023-03-04T18:01:19.278Z,28.65
2023-03-04T18:03:47.045Z,24.77
2023-03-04T18:06:14.927Z,23.40
2023-03-04T18:08:42.389Z,25.00
2023-03-04T18:11:10.365Z,22.60
2023-03-04T18:13:38.598Z,23.73
2023-03-04T18:16:06.227Z,21.30
2023-03-04T18:18:33.606Z,22.98
2023-03-04T18:21:04.826Z,22.00
2023-03-04T18:23:32.623Z,23.23
2023-03-04T18:26:00.338Z,23.25
2023-03-04T18:28:28.170Z,22.13
2023-03-04T18:30:55.671Z,20.45
2023-03-04T18:33:23.453Z,22.05
2023-03-04T18:35:50.887Z,20.90
2023-03-04T18:38:18.321Z,19.60
2023-03-04T18:40:45.681Z,20.42
2023-03-04T18:43:13.026Z,20.63
2023-03-04T18:45:40.359Z,24.85
2023-03-04T18:48:08.219Z,21.33
2023-03-04T18:50:35.519Z,20.85
2023-03-04T18:53:05.505Z,18.92
2023-03-04T18:55:32.786Z,27.98
2023-03-04T18:58:01.521Z,22.42
2023-03-04T19:00:29.066Z,21.02
2023-03-04T19:03:01.503Z,26.83
2023-03-04T19:05:31.370Z,26.00
2023-03-04T19:07:59.227Z,26.63
2023-03-04T19:10:26.887Z,26.90
2023-03-04T19:12:57.321Z,23.70
2023-03-04T19:15:25.304Z,26.70
2023-03-04T19:17:52.834Z,26.35
2023-03-04T19:20:20.163Z,21.95
2023-03-04T19:22:47.785Z,24.58
2023-03-04T19:25:15.248Z,27.10
2023-03-04T19:27:42.748Z,30.38
2023-03-04T19:30:10.600Z,27.35
2023-03-04T19:32:37.997Z,21.40
2023-03-04T19:35:05.649Z,21.77
2023-03-04T19:37:33.029Z,26.48
2023-03-04T19:40:00.275Z,27.85
2023-03-04T19:42:27.649Z,21.45
2023-03-04T19:44:55.090Z,22.92
2023-03-04T19:47:22.478Z,27.48
2023-03-04T19:49:49.804Z,25.42
2023-03-04T19:52:17.120Z,23.45
2023-03-04T19:54:44.405Z,23.27
2023-03-04T19:57:11.721Z,24.13
2023-03-04T19:59:39.042Z,23.88
2023-03-04T20:02:06.585Z,29.05
2023-03-04T20:04:36.982Z,24.60
2023-03-04T20:07:04.678Z,24.95
2023-03-04T20:09:32.187Z,24.02
2023-03-04T20:11:59.730Z,24.65
2023-03-04T20:14:27.995Z,25.40
2023-03-04T20:17:16.576Z,22.45
2023-03-04T20:19:44.467Z,23.38
2023-03-04T20:22:13.367Z,24.27
2023-03-04T20:24:40.633Z,30.75
2023-03-04T20:27:07.990Z,30.08
2023-03-04T20:29:35.300Z,24.05
2023-03-04T20:32:03.690Z,27.52
2023-03-04T20:34:31.030Z,30.60
2023-03-04T20:37:00.080Z,25.45
2023-03-04T20:39:29.956Z,25.80
2023-03-04T20:41:58.659Z,26.30
2023-03-04T20:44:26.810Z,25.35
2023-03-04T20:46:54.333Z,29.27
2023-03-04T20:49:27.919Z,29.73
2023-03-04T20:52:06.544Z,27.80
2023-03-04T20:54:35.869Z,26.33
2023-03-04T20:57:06.823Z,24.42
2023-03-04T20:59:35.294Z,25.38
2023-03-04T21:02:02.674Z,25.00
2023-03-04T21:04:31.922Z,29.15
2023-03-04T21:07:03.709Z,29.08
2023-03-04T21:09:31.220Z,27.75
2023-03-04T21:12:00.794Z,30.00
2023-03-04T21:14:30.595Z,31.33
2023-03-04T21:17:00.567Z,34.42
2023-03-04T21:19:36.388Z,31.95
2023-03-04T21:22:04.191Z,35.33
2023-03-04T21:24:35.254Z,32.85
2023-03-04T21:27:04.233Z,30.57
2023-03-04T21:29:31.972Z,28.90
2023-03-04T21:32:12.953Z,29.92
2023-03-04T21:34:48.395Z,27.08
2023-03-04T21:37:15.838Z,26.20
2023-03-04T21:42:10.541Z,27.20
2023-03-04T21:44:49.116Z,25.90
2023-03-04T21:47:16.961Z,26.75
2023-03-04T21:49:44.359Z,28.60
2023-03-04T21:52:13.027Z,27.38
2023-03-04T21:54:40.375Z,26.13
2023-03-04T21:57:07.735Z,27.13
2023-03-04T21:59:35.106Z,26.48
2023-03-04T22:02:02.547Z,27.08
2023-03-04T22:04:30.058Z,27.00
2023-03-04T22:06:57.437Z,28.92
2023-03-04T22:09:25.232Z,31.00
2023-03-04T22:11:52.544Z,29.52
2023-03-04T22:14:20.054Z,29.80
2023-03-04T22:16:54.943Z,26.92
2023-03-04T22:19:29.900Z,26.77
2023-03-04T22:21:57.243Z,26.77
2023-03-04T22:24:26.196Z,27.58
2023-03-04T22:26:53.660Z,26.20
2023-03-04T22:29:20.961Z,26.77
2023-03-04T22:31:48.377Z,28.63
2023-03-04T22:34:16.566Z,31.23
2023-03-04T22:36:46.469Z,26.85
2023-03-04T22:39:19.780Z,32.17
2023-03-04T22:41:50.302Z,33.15
2023-03-04T22:44:17.690Z,32.75
2023-03-04T22:46:45.320Z,31.65
2023-03-04T22:49:14.036Z,29.05
2023-03-04T22:51:43.351Z,28.92
2023-03-04T22:54:15.717Z,27.40
2023-03-04T22:56:43.776Z,27.75
2023-03-04T22:59:11.159Z,29.10
2023-03-04T23:01:38.543Z,32.97
2023-03-04T23:04:06.041Z,29.23
2023-03-04T23:06:34.019Z,27.63
2023-03-04T23:09:02.303Z,29.08
2023-03-04T23:11:31.889Z,28.55
2023-03-04T23:14:02.152Z,27.63
2023-03-04T23:16:29.916Z,27.52
2023-03-04T23:18:59.448Z,28.52
2023-03-04T23:21:28.422Z,32.88
2023-03-04T23:23:56.075Z,27.00
2023-03-04T23:26:29.412Z,26.83
2023-03-04T23:28:57.240Z,27.48
2023-03-04T23:31:25.823Z,27.77
2023-03-04T23:33:57.216Z,30.15
2023-03-04T23:36:26.946Z,32.55
2023-03-04T23:38:54.784Z,27.55
2023-03-04T23:41:25.507Z,30.80
2023-03-04T23:43:55.201Z,31.15
2023-03-04T23:46:23.738Z,27.75
2023-03-04T23:48:51.096Z,27.13
2023-03-04T23:51:24.007Z,26.75
2023-03-04T23:53:51.867Z,31.63
2023-03-04T23:56:21.981Z,33.38
2023-03-04T23:58:49.532Z,29.23
